Time;durP1;ratioP1;P1;durP2;ratioP2;P2;SDS_P1;SDS_P2;PMS_P1;PMS_P2;Temp;Humidity;BMP_temperature;BMP_pressure;BME280_temperature;BME280_humidity;BME280_pressure;Samples;Min_cycle;Max_cycle;Signal;HPM_P1;HPM_P2
2023/03/03 00:00:18;;;;;;;69.45;13.50;;;;;;;;;;4981226;28;20035;-76
2023/03/03 00:02:44;;;;;;;99.30;16.88;;;;;;;;;;4985939;28;20038;-76
2023/03/03 00:05:14;;;;;;;254.75;21.38;;;;;;;;;;4983631;28;20378;-77
2023/03/03 00:07:42;;;;;;;108.43;16.00;;;;;;;;;;4983784;28;20022;-77
2023/03/03 00:10:08;;;;;;;241.57;22.65;;;;;;;;;;4982881;28;20062;-78
2023/03/03 00:12:35;;;;;;;206.18;21.88;;;;;;;;;;4985182;28;20042;-77
2023/03/03 00:15:01;;;;;;;161.98;18.40;;;;;;;;;;4979779;28;20039;-77
2023/03/03 00:17:29;;;;;;;153.60;17.92;;;;;;;;;;4981073;28;20042;-76
2023/03/03 00:19:55;;;;;;;103.03;16.42;;;;;;;;;;4983922;28;20029;-76
2023/03/03 00:22:27;;;;;;;214.70;16.98;;;;;;;;;;4986967;28;20061;-76
2023/03/03 00:24:53;;;;;;;215.10;19.30;;;;;;;;;;4988009;28;20065;-76
2023/03/03 00:27:19;;;;;;;203.48;20.50;;;;;;;;;;4987286;28;20059;-76
2023/03/03 00:29:47;;;;;;;178.00;19.30;;;;;;;;;;4984780;28;20031;-76
2023/03/03 00:32:22;;;;;;;195.50;20.48;;;;;;;;;;4982901;28;20050;-77
2023/03/03 00:34:49;;;;;;;156.95;17.13;;;;;;;;;;4986817;28;20053;-77
2023/03/03 00:37:30;;;;;;;508.45;30.38;;;;;;;;;;4983588;28;20032;-76
2023/03/03 00:39:59;;;;;;;223.25;17.48;;;;;;;;;;4985707;28;20030;-77
2023/03/03 00:42:27;;;;;;;317.75;23.58;;;;;;;;;;4982167;28;20030;-76
2023/03/03 00:44:55;;;;;;;268.50;23.85;;;;;;;;;;4986639;28;20058;-77
2023/03/03 00:47:32;;;;;;;326.80;17.83;;;;;;;;;;4989966;28;20044;-76
2023/03/03 00:50:07;;;;;;;284.20;21.23;;;;;;;;;;4968218;28;20054;-76
2023/03/03 00:52:38;;;;;;;613.45;33.83;;;;;;;;;;4966959;28;20439;-75
2023/03/03 00:55:05;;;;;;;455.90;24.45;;;;;;;;;;4971506;28;20046;-77
2023/03/03 00:57:31;;;;;;;485.20;23.85;;;;;;;;;;4966867;28;20027;-77
2023/03/03 00:59:57;;;;;;;278.55;23.13;;;;;;;;;;4968503;28;20035;-76
2023/03/03 01:02:23;;;;;;;443.02;33.47;;;;;;;;;;4968531;28;20414;-76
2023/03/03 01:04:50;;;;;;;345.60;18.50;;;;;;;;;;4965836;28;20031;-77
2023/03/03 01:07:17;;;;;;;279.52;20.40;;;;;;;;;;4965884;28;20550;-77
2023/03/03 01:09:43;;;;;;;346.33;23.27;;;;;;;;;;4966827;28;20034;-77
2023/03/03 01:12:09;;;;;;;183.48;15.43;;;;;;;;;;4971686;28;20072;-76
2023/03/03 01:14:36;;;;;;;245.82;15.10;;;;;;;;;;4965851;28;20030;-76
2023/03/03 01:17:02;;;;;;;244.98;13.82;;;;;;;;;;4967561;28;20530;-76
2023/03/03 01:19:28;;;;;;;211.82;15.52;;;;;;;;;;4970303;28;20373;-77
2023/03/03 01:21:55;;;;;;;421.83;21.67;;;;;;;;;;4968311;28;20101;-77
2023/03/03 01:24:22;;;;;;;289.58;18.27;;;;;;;;;;4965304;28;20082;-76
2023/03/03 01:26:48;;;;;;;289.27;18.52;;;;;;;;;;4968265;28;20039;-76
2023/03/03 01:29:14;;;;;;;205.55;13.07;;;;;;;;;;4968567;28;20035;-76
2023/03/03 01:31:40;;;;;;;258.77;16.65;;;;;;;;;;4968084;28;20027;-76
2023/03/03 01:34:06;;;;;;;254.68;15.45;;;;;;;;;;4967734;28;20039;-76
2023/03/03 01:36:33;;;;;;;295.42;17.83;;;;;;;;;;4969658;28;20030;-77
2023/03/03 01:38:59;;;;;;;157.95;11.32;;;;;;;;;;4965582;28;20029;-77
2023/03/03 01:41:31;;;;;;;125.70;12.65;;;;;;;;;;4964752;28;20043;-77
2023/03/03 01:43:57;;;;;;;140.60;13.57;;;;;;;;;;4969621;28;20039;-77
2023/03/03 01:46:23;;;;;;;164.75;12.68;;;;;;;;;;4970224;28;20118;-76
2023/03/03 01:48:51;;;;;;;232.90;17.58;;;;;;;;;;4968583;28;20905;-76
2023/03/03 01:51:28;;;;;;;170.57;13.93;;;;;;;;;;4987280;28;20792;-77
2023/03/03 01:53:57;;;;;;;93.55;11.98;;;;;;;;;;4985135;28;20140;-76
2023/03/03 01:56:24;;;;;;;174.02;13.95;;;;;;;;;;4987011;28;20088;-76
2023/03/03 01:58:53;;;;;;;131.43;15.35;;;;;;;;;;4984240;28;20105;-76
2023/03/03 02:01:21;;;;;;;194.60;13.88;;;;;;;;;;4986221;28;20042;-77
2023/03/03 02:03:48;;;;;;;117.07;8.48;;;;;;;;;;4988122;28;20104;-76
2023/03/03 02:06:15;;;;;;;242.75;11.90;;;;;;;;;;4988765;28;20026;-77
2023/03/03 02:08:47;;;;;;;143.23;12.25;;;;;;;;;;4971593;28;20424;-77
2023/03/03 02:11:14;;;;;;;101.53;11.25;;;;;;;;;;4985697;28;20037;-77
2023/03/03 02:13:40;;;;;;;89.30;9.32;;;;;;;;;;4987216;28;20026;-76
2023/03/03 02:16:06;;;;;;;75.07;8.45;;;;;;;;;;4949381;28;20045;-77
2023/03/03 02:18:33;;;;;;;91.95;7.72;;;;;;;;;;4983745;28;20042;-76
2023/03/03 02:21:14;;;;;;;118.72;11.27;;;;;;;;;;4986480;28;20034;-76
2023/03/03 02:23:46;;;;;;;60.55;7.78;;;;;;;;;;4987014;28;20483;-76
2023/03/03 02:26:14;;;;;;;89.68;8.70;;;;;;;;;;4987265;28;20026;-76
2023/03/03 02:28:41;;;;;;;92.13;8.00;;;;;;;;;;4988323;28;20023;-76
2023/03/03 02:31:13;;;;;;;39.45;7.75;;;;;;;;;;4985008;28;20088;-76
2023/03/03 02:33:42;;;;;;;54.27;9.53;;;;;;;;;;4985669;28;20034;-76
2023/03/03 02:36:13;;;;;;;51.08;7.88;;;;;;;;;;4989232;28;20356;-75
2023/03/03 02:38:42;;;;;;;68.15;10.95;;;;;;;;;;4986317;28;20034;-75
2023/03/03 02:41:17;;;;;;;72.95;9.25;;;;;;;;;;4968106;28;20057;-75
2023/03/03 02:43:57;;;;;;;132.43;9.75;;;;;;;;;;4987115;28;20065;-75
2023/03/03 02:46:23;;;;;;;179.38;12.00;;;;;;;;;;4986200;28;20030;-75
2023/03/03 02:48:49;;;;;;;120.88;8.55;;;;;;;;;;4983548;28;20069;-75
2023/03/03 02:51:15;;;;;;;65.40;8.13;;;;;;;;;;4981952;28;20050;-75
2023/03/03 02:53:41;;;;;;;54.85;6.90;;;;;;;;;;4984970;28;20049;-76
2023/03/03 02:56:08;;;;;;;77.32;8.48;;;;;;;;;;4984307;28;20396;-75
2023/03/03 02:58:34;;;;;;;37.53;7.97;;;;;;;;;;4969449;28;20493;-73
2023/03/03 03:01:00;;;;;;;128.73;37.10;;;;;;;;;;4983913;28;20034;-78
2023/03/03 03:03:27;;;;;;;39.75;7.93;;;;;;;;;;4984852;28;20042;-79
2023/03/03 03:05:53;;;;;;;46.50;8.00;;;;;;;;;;4980958;28;20037;-76
2023/03/03 03:08:19;;;;;;;68.05;8.10;;;;;;;;;;4982588;28;20038;-76
2023/03/03 03:10:45;;;;;;;42.92;8.35;;;;;;;;;;4987778;28;20411;-75
2023/03/03 03:13:11;;;;;;;71.22;8.13;;;;;;;;;;4985526;28;20059;-75
2023/03/03 03:15:37;;;;;;;47.97;7.85;;;;;;;;;;4987588;28;20034;-75
2023/03/03 03:18:04;;;;;;;71.88;8.82;;;;;;;;;;4980752;28;20026;-75
2023/03/03 03:20:30;;;;;;;27.02;8.20;;;;;;;;;;4987610;28;20031;-74
2023/03/03 03:22:56;;;;;;;32.05;7.25;;;;;;;;;;4984918;28;20045;-75
2023/03/03 03:25:22;;;;;;;10.93;7.22;;;;;;;;;;4985743;28;20390;-75
2023/03/03 03:27:48;;;;;;;7.47;6.20;;;;;;;;;;4982472;28;20042;-74
2023/03/03 03:30:14;;;;;;;7.18;5.65;;;;;;;;;;4985373;28;20022;-74
2023/03/03 03:32:41;;;;;;;7.57;5.57;;;;;;;;;;4952932;28;20069;-74
2023/03/03 03:35:07;;;;;;;7.25;5.85;;;;;;;;;;4982137;28;20030;-75
2023/03/03 03:37:33;;;;;;;7.57;6.07;;;;;;;;;;4986177;28;20040;-74
2023/03/03 03:39:59;;;;;;;8.82;6.53;;;;;;;;;;4982394;28;20050;-75
2023/03/03 03:42:25;;;;;;;7.68;6.32;;;;;;;;;;4983492;28;20085;-74
2023/03/03 03:44:51;;;;;;;7.00;5.93;;;;;;;;;;4983015;28;20038;-75
2023/03/03 03:47:17;;;;;;;9.32;6.22;;;;;;;;;;4986498;28;20847;-75
2023/03/03 03:49:43;;;;;;;101.43;47.92;;;;;;;;;;4980738;28;20365;-78
2023/03/03 03:52:09;;;;;;;8.32;6.45;;;;;;;;;;4986362;28;20034;-78
2023/03/03 03:54:35;;;;;;;72.60;37.60;;;;;;;;;;4983932;28;20042;-74
2023/03/03 03:57:02;;;;;;;7.65;5.97;;;;;;;;;;4968877;28;20117;-76
2023/03/03 03:59:28;;;;;;;6.63;5.53;;;;;;;;;;4966997;28;20046;-75
2023/03/03 04:01:54;;;;;;;7.25;5.90;;;;;;;;;;4984907;28;20023;-75
2023/03/03 04:04:20;;;;;;;7.35;6.20;;;;;;;;;;4985356;28;20081;-75
2023/03/03 04:06:46;;;;;;;6.68;5.68;;;;;;;;;;4985886;28;20031;-75
2023/03/03 04:09:12;;;;;;;7.10;6.40;;;;;;;;;;4982756;28;20031;-75
2023/03/03 04:11:38;;;;;;;6.25;5.50;;;;;;;;;;4987143;28;20034;-75
2023/03/03 04:14:04;;;;;;;7.22;5.90;;;;;;;;;;4966730;28;20034;-77
2023/03/03 04:16:30;;;;;;;7.05;5.88;;;;;;;;;;4969104;28;20042;-74
2023/03/03 04:18:56;;;;;;;6.75;5.63;;;;;;;;;;4980150;28;20038;-76
2023/03/03 04:21:22;;;;;;;8.70;6.20;;;;;;;;;;4987911;28;20375;-74
2023/03/03 04:23:48;;;;;;;6.05;4.90;;;;;;;;;;4984948;28;20355;-74
2023/03/03 04:26:15;;;;;;;6.60;5.40;;;;;;;;;;4990992;28;20490;-74
2023/03/03 04:28:41;;;;;;;7.88;6.25;;;;;;;;;;4971729;28;20041;-75
2023/03/03 04:31:07;;;;;;;6.50;5.80;;;;;;;;;;4983562;28;20077;-76
2023/03/03 04:33:33;;;;;;;7.40;6.50;;;;;;;;;;4989354;28;20039;-76
2023/03/03 04:35:59;;;;;;;7.20;5.43;;;;;;;;;;4989801;28;20124;-76
2023/03/03 04:38:25;;;;;;;7.72;6.30;;;;;;;;;;4973763;28;20041;-73
2023/03/03 04:40:51;;;;;;;7.72;5.90;;;;;;;;;;4970842;28;20049;-75
2023/03/03 04:43:17;;;;;;;7.22;5.78;;;;;;;;;;4986441;28;20097;-74
2023/03/03 04:45:44;;;;;;;7.07;5.85;;;;;;;;;;4989133;28;20026;-75
2023/03/03 04:48:10;;;;;;;7.35;5.93;;;;;;;;;;4988646;28;20030;-75
2023/03/03 04:50:36;;;;;;;6.82;5.93;;;;;;;;;;4968513;28;20059;-75
2023/03/03 04:53:03;;;;;;;6.68;5.50;;;;;;;;;;4969538;28;20042;-75
2023/03/03 04:55:29;;;;;;;7.80;5.90;;;;;;;;;;4967244;28;20066;-74
2023/03/03 04:57:55;;;;;;;6.90;5.65;;;;;;;;;;4970106;28;20026;-74
2023/03/03 05:00:21;;;;;;;7.57;6.30;;;;;;;;;;4967798;28;20023;-75
2023/03/03 05:02:48;;;;;;;8.70;5.95;;;;;;;;;;4971247;28;20133;-75
2023/03/03 05:05:14;;;;;;;6.88;5.40;;;;;;;;;;4962280;28;20106;-75
2023/03/03 05:07:40;;;;;;;5.82;5.00;;;;;;;;;;4961299;28;20110;-76
2023/03/03 05:10:08;;;;;;;6.82;5.28;;;;;;;;;;4970484;28;20023;-75
2023/03/03 05:12:34;;;;;;;9.90;5.20;;;;;;;;;;4969095;28;20089;-75
2023/03/03 05:15:00;;;;;;;7.65;6.03;;;;;;;;;;4970747;28;20039;-75
2023/03/03 05:17:26;;;;;;;6.68;5.82;;;;;;;;;;4962151;28;20471;-75
2023/03/03 05:19:53;;;;;;;8.48;5.90;;;;;;;;;;4962783;28;20050;-75
2023/03/03 05:22:19;;;;;;;8.75;6.55;;;;;;;;;;4966375;28;20046;-75
2023/03/03 05:24:47;;;;;;;7.40;6.47;;;;;;;;;;4962491;28;20046;-74
2023/03/03 05:27:14;;;;;;;6.95;5.70;;;;;;;;;;4966143;28;20571;-75
2023/03/03 05:29:40;;;;;;;7.28;5.70;;;;;;;;;;4969066;28;20054;-75
2023/03/03 05:32:06;;;;;;;8.43;6.57;;;;;;;;;;4966472;28;20038;-74
2023/03/03 05:34:32;;;;;;;7.28;6.10;;;;;;;;;;4969391;28;20027;-74
2023/03/03 05:36:58;;;;;;;6.93;6.13;;;;;;;;;;4967719;28;20022;-75
2023/03/03 05:39:25;;;;;;;9.75;5.72;;;;;;;;;;4966221;28;20385;-74
2023/03/03 05:41:51;;;;;;;8.05;7.25;;;;;;;;;;4970810;28;20026;-75
2023/03/03 05:44:17;;;;;;;8.90;6.63;;;;;;;;;;4968809;28;20057;-75
2023/03/03 05:46:43;;;;;;;8.25;6.35;;;;;;;;;;4968799;28;20022;-76
2023/03/03 05:49:09;;;;;;;7.95;6.55;;;;;;;;;;4972551;28;20049;-76
2023/03/03 05:51:35;;;;;;;8.07;6.18;;;;;;;;;;4986769;28;20533;-75
2023/03/03 05:54:01;;;;;;;11.93;6.70;;;;;;;;;;4986525;28;20097;-75
2023/03/03 05:56:27;;;;;;;6.47;5.68;;;;;;;;;;4984976;28;20037;-76
2023/03/03 05:58:54;;;;;;;7.50;5.82;;;;;;;;;;4985330;28;20034;-76
2023/03/03 06:01:21;;;;;;;6.70;5.88;;;;;;;;;;4986064;28;20038;-75
2023/03/03 06:03:47;;;;;;;9.00;6.82;;;;;;;;;;4987951;28;20049;-75
2023/03/03 06:06:15;;;;;;;6.95;6.22;;;;;;;;;;4986712;28;20371;-74
2023/03/03 06:08:41;;;;;;;8.07;6.65;;;;;;;;;;4987660;28;20026;-76
2023/03/03 06:11:08;;;;;;;11.35;6.45;;;;;;;;;;4988080;28;20042;-76
2023/03/03 06:13:34;;;;;;;8.02;6.70;;;;;;;;;;4983388;28;20380;-75
2023/03/03 06:16:00;;;;;;;9.93;6.30;;;;;;;;;;4968327;28;20073;-74
2023/03/03 06:18:26;;;;;;;7.63;6.05;;;;;;;;;;4988450;28;20038;-74
2023/03/03 06:20:55;;;;;;;8.85;6.60;;;;;;;;;;4989261;28;20039;-75
2023/03/03 06:23:21;;;;;;;7.30;5.78;;;;;;;;;;4985724;28;20133;-75
2023/03/03 06:25:47;;;;;;;8.73;6.63;;;;;;;;;;4968565;28;20042;-75
2023/03/03 06:28:14;;;;;;;7.72;6.43;;;;;;;;;;4989007;28;20026;-75
2023/03/03 06:30:40;;;;;;;8.07;6.55;;;;;;;;;;4985536;28;20026;-75
2023/03/03 06:33:06;;;;;;;8.48;5.65;;;;;;;;;;4987977;28;20034;-76
2023/03/03 06:35:32;;;;;;;6.72;5.88;;;;;;;;;;4985392;28;20431;-75
2023/03/03 06:37:58;;;;;;;15.60;6.30;;;;;;;;;;4985423;28;20379;-76
2023/03/03 06:40:24;;;;;;;6.47;5.65;;;;;;;;;;4989104;28;20548;-75
2023/03/03 06:42:50;;;;;;;7.72;5.95;;;;;;;;;;4987006;28;20023;-75
2023/03/03 06:45:16;;;;;;;7.20;6.15;;;;;;;;;;4984924;28;20050;-74
2023/03/03 06:47:42;;;;;;;10.18;5.82;;;;;;;;;;4983690;28;20387;-75
2023/03/03 06:50:10;;;;;;;8.82;6.45;;;;;;;;;;4983754;28;20404;-76
2023/03/03 06:52:36;;;;;;;10.95;5.70;;;;;;;;;;4968899;28;20114;-75
2023/03/03 06:55:09;;;;;;;11.98;6.45;;;;;;;;;;4988104;28;20026;-75
2023/03/03 06:57:36;;;;;;;7.60;6.13;;;;;;;;;;4988526;28;20509;-74
2023/03/03 07:00:14;;;;;;;9.02;7.22;;;;;;;;;;4986010;28;20037;-76
2023/03/03 07:02:40;;;;;;;10.70;6.85;;;;;;;;;;4966734;28;20506;-75
2023/03/03 07:05:10;;;;;;;9.38;7.35;;;;;;;;;;4982932;28;20475;-76
2023/03/03 07:07:36;;;;;;;12.07;7.22;;;;;;;;;;4984135;28;20434;-77
2023/03/03 07:10:07;;;;;;;19.08;8.98;;;;;;;;;;4986381;28;20029;-76
2023/03/03 07:12:35;;;;;;;13.90;10.80;;;;;;;;;;4983363;28;20030;-75
2023/03/03 07:15:10;;;;;;;15.15;10.25;;;;;;;;;;4986451;28;20030;-76
2023/03/03 07:17:39;;;;;;;18.83;11.23;;;;;;;;;;4983385;28;20038;-75
2023/03/03 07:20:17;;;;;;;16.95;11.43;;;;;;;;;;4966997;28;20034;-76
2023/03/03 07:22:43;;;;;;;13.70;11.20;;;;;;;;;;4980245;28;20026;-75
2023/03/03 07:25:19;;;;;;;15.80;10.75;;;;;;;;;;4982651;28;20033;-77
2023/03/03 07:27:45;;;;;;;13.85;9.75;;;;;;;;;;4983541;28;20035;-76
2023/03/03 07:30:11;;;;;;;258.15;117.07;;;;;;;;;;4982403;28;20109;-79
2023/03/03 07:32:45;;;;;;;11.77;8.52;;;;;;;;;;4979509;28;20176;-76
2023/03/03 07:35:27;;;;;;;11.90;8.95;;;;;;;;;;4980473;28;20054;-79
2023/03/03 07:37:53;;;;;;;10.55;8.13;;;;;;;;;;4962271;28;20035;-78
2023/03/03 07:40:28;;;;;;;16.38;9.10;;;;;;;;;;4979274;28;20084;-77
2023/03/03 07:42:55;;;;;;;15.82;9.07;;;;;;;;;;4969437;28;20030;-77
2023/03/03 07:45:31;;;;;;;13.93;9.40;;;;;;;;;;4987430;28;20034;-77
2023/03/03 07:48:03;;;;;;;12.18;8.95;;;;;;;;;;4985150;28;20034;-78
2023/03/03 07:50:29;;;;;;;14.70;10.63;;;;;;;;;;4981157;28;20518;-74
2023/03/03 07:52:56;;;;;;;16.88;9.30;;;;;;;;;;4982060;28;20435;-77
2023/03/03 07:55:31;;;;;;;9.25;7.63;;;;;;;;;;4981065;28;20026;-75
2023/03/03 07:58:05;;;;;;;9.40;7.25;;;;;;;;;;4982432;28;20038;-74
2023/03/03 08:00:31;;;;;;;10.23;6.78;;;;;;;;;;4982106;28;20038;-74
2023/03/03 08:03:02;;;;;;;11.75;6.05;;;;;;;;;;4979393;28;20434;-75
2023/03/03 08:05:30;;;;;;;7.33;6.00;;;;;;;;;;4978202;28;20387;-75
2023/03/03 08:08:16;;;;;;;8.70;6.13;;;;;;;;;;4970054;28;20050;-78
2023/03/03 08:10:49;;;;;;;7.18;5.32;;;;;;;;;;4978023;28;20590;-79
2023/03/03 08:13:19;;;;;;;8.98;7.95;;;;;;;;;;4982898;28;20038;-79
2023/03/03 08:15:46;;;;;;;11.40;7.63;;;;;;;;;;4976732;28;20081;-77
2023/03/03 08:18:18;;;;;;;59.28;31.50;;;;;;;;;;4983309;28;20437;-82
2023/03/03 08:20:46;;;;;;;42.30;23.83;;;;;;;;;;4981280;28;20033;-77
2023/03/03 08:23:12;;;;;;;6.78;5.47;;;;;;;;;;4981295;28;20062;-76
2023/03/03 08:25:41;;;;;;;18.38;8.57;;;;;;;;;;4984021;28;20038;-76
2023/03/03 08:28:07;;;;;;;12.25;7.45;;;;;;;;;;4982896;28;20081;-77
2023/03/03 08:30:33;;;;;;;8.55;4.05;;;;;;;;;;4963952;28;21249;-74
2023/03/03 08:33:00;;;;;;;7.35;3.75;;;;;;;;;;4982286;28;20030;-76
2023/03/03 08:35:26;;;;;;;5.43;4.07;;;;;;;;;;4982648;28;20427;-77
2023/03/03 08:37:53;;;;;;;3.92;3.35;;;;;;;;;;4984088;28;20480;-76
2023/03/03 08:40:19;;;;;;;12.95;3.80;;;;;;;;;;4981647;28;20452;-75
2023/03/03 08:42:46;;;;;;;11.18;3.88;;;;;;;;;;4981441;28;20053;-77
2023/03/03 08:45:12;;;;;;;8.52;3.92;;;;;;;;;;4975441;28;20114;-75
2023/03/03 08:47:38;;;;;;;10.50;3.95;;;;;;;;;;4990380;28;20376;-75
2023/03/03 08:50:05;;;;;;;7.13;2.90;;;;;;;;;;4982896;28;20081;-78
2023/03/03 08:52:33;;;;;;;6.40;3.17;;;;;;;;;;4977026;28;20061;-76
2023/03/03 08:54:59;;;;;;;6.80;2.50;;;;;;;;;;4983075;28;20149;-78
2023/03/03 08:57:25;;;;;;;4.63;2.33;;;;;;;;;;4985123;28;20542;-76
2023/03/03 08:59:51;;;;;;;7.25;2.80;;;;;;;;;;4983516;28;20325;-77
2023/03/03 09:02:17;;;;;;;4.32;2.08;;;;;;;;;;4981427;28;20044;-77
2023/03/03 09:04:43;;;;;;;5.60;2.50;;;;;;;;;;4978783;28;20090;-76
2023/03/03 09:07:09;;;;;;;6.90;2.45;;;;;;;;;;4977643;28;20105;-74
2023/03/03 09:09:36;;;;;;;7.57;2.50;;;;;;;;;;4969868;28;20042;-74
2023/03/03 09:12:22;;;;;;;7.55;2.42;;;;;;;;;;4966978;28;20154;-76
2023/03/03 09:14:51;;;;;;;4.95;1.98;;;;;;;;;;4985249;28;20113;-76
2023/03/03 09:17:24;;;;;;;6.22;1.92;;;;;;;;;;4985242;28;20034;-76
2023/03/03 09:19:51;;;;;;;12.05;3.25;;;;;;;;;;4966279;28;20046;-77
2023/03/03 09:22:24;;;;;;;5.60;2.97;;;;;;;;;;4971818;28;20019;-79
2023/03/03 09:24:53;;;;;;;6.75;1.60;;;;;;;;;;4979929;28;20046;-75
2023/03/03 09:27:23;;;;;;;5.70;1.77;;;;;;;;;;4984586;28;20113;-75
2023/03/03 09:29:49;;;;;;;2.50;1.13;;;;;;;;;;4989597;28;20030;-73
2023/03/03 09:32:34;;;;;;;1.45;0.90;;;;;;;;;;4981983;28;20030;-77
2023/03/03 09:35:03;;;;;;;4.28;1.23;;;;;;;;;;4992415;28;20092;-76
2023/03/03 09:37:33;;;;;;;7.60;1.42;;;;;;;;;;4991223;28;20142;-76
2023/03/03 09:40:01;;;;;;;10.90;2.05;;;;;;;;;;4993420;28;20479;-76
2023/03/03 09:42:46;;;;;;;3.00;0.95;;;;;;;;;;4987613;28;20125;-75
2023/03/03 09:45:12;;;;;;;4.18;1.40;;;;;;;;;;4993344;28;20053;-76
2023/03/03 09:47:41;;;;;;;7.85;1.60;;;;;;;;;;4982089;28;20525;-76
2023/03/03 09:50:12;;;;;;;4.10;1.20;;;;;;;;;;4979405;28;20054;-76
2023/03/03 09:53:07;;;;;;;5.63;0.93;;;;;;;;;;4988119;28;20061;-76
2023/03/03 09:55:33;;;;;;;7.43;0.88;;;;;;;;;;4974424;28;20031;-76
2023/03/03 09:58:17;;;;;;;1.75;0.65;;;;;;;;;;4977308;28;20035;-77
2023/03/03 10:00:46;;;;;;;3.03;0.55;;;;;;;;;;4988628;28;20027;-76
2023/03/03 10:03:12;;;;;;;1.92;0.45;;;;;;;;;;4986284;28;20047;-76
2023/03/03 10:05:39;;;;;;;4.88;0.75;;;;;;;;;;4993994;28;20034;-76
2023/03/03 10:08:20;;;;;;;2.45;0.85;;;;;;;;;;4990179;28;20613;-78
2023/03/03 10:10:52;;;;;;;2.67;0.80;;;;;;;;;;4978262;28;20034;-77
2023/03/03 10:13:37;;;;;;;3.20;0.50;;;;;;;;;;4986496;28;20487;-77
2023/03/03 10:16:19;;;;;;;3.53;0.70;;;;;;;;;;4987910;28;20030;-79
2023/03/03 10:18:49;;;;;;;1.77;0.77;;;;;;;;;;4972926;28;20027;-77
2023/03/03 10:21:21;;;;;;;4.30;0.80;;;;;;;;;;4991815;28;20097;-77
2023/03/03 10:24:14;;;;;;;2.05;0.60;;;;;;;;;;4989758;28;20043;-77
2023/03/03 10:27:05;;;;;;;3.03;0.80;;;;;;;;;;4992019;28;20034;-79
2023/03/03 10:29:36;;;;;;;3.30;1.05;;;;;;;;;;4986300;28;20038;-78
2023/03/03 10:32:17;;;;;;;3.13;0.50;;;;;;;;;;4979271;28;20035;-78
2023/03/03 10:34:56;;;;;;;5.15;1.85;;;;;;;;;;4990984;28;20162;-77
2023/03/03 10:37:22;;;;;;;4.72;0.85;;;;;;;;;;4990087;28;20029;-77
2023/03/03 10:39:53;;;;;;;1.50;0.52;;;;;;;;;;4990031;28;20382;-77
2023/03/03 10:42:38;;;;;;;1.77;0.52;;;;;;;;;;4991899;28;20026;-77
2023/03/03 10:45:13;;;;;;;2.70;0.52;;;;;;;;;;4985376;28;20093;-77
2023/03/03 10:47:44;;;;;;;2.67;0.75;;;;;;;;;;4978316;28;20023;-77
2023/03/03 10:50:20;;;;;;;3.00;1.20;;;;;;;;;;4974647;28;20050;-77
2023/03/03 10:53:05;;;;;;;3.22;0.70;;;;;;;;;;4991680;28;20038;-77
2023/03/03 10:55:31;;;;;;;1.73;0.50;;;;;;;;;;4983865;28;20034;-77
2023/03/03 10:58:12;;;;;;;3.80;1.08;;;;;;;;;;4989679;28;20033;-77
2023/03/03 11:00:44;;;;;;;4.13;0.90;;;;;;;;;;4987804;28;20027;-77
2023/03/03 11:03:29;;;;;;;2.53;0.60;;;;;;;;;;4980446;28;20101;-77
2023/03/03 11:06:00;;;;;;;6.03;0.63;;;;;;;;;;4987237;28;20484;-78
2023/03/03 11:08:26;;;;;;;4.68;0.80;;;;;;;;;;4975591;28;20030;-78
2023/03/03 11:10:59;;;;;;;4.05;0.95;;;;;;;;;;4973617;28;20486;-78
2023/03/03 11:13:28;;;;;;;1.70;0.57;;;;;;;;;;4989768;28;20057;-78
2023/03/03 11:16:06;;;;;;;4.82;1.02;;;;;;;;;;4985237;28;20027;-77
2023/03/03 11:18:35;;;;;;;3.00;0.50;;;;;;;;;;4974434;28;20034;-77
2023/03/03 11:21:11;;;;;;;4.25;0.70;;;;;;;;;;4976523;28;20117;-78
2023/03/03 11:23:55;;;;;;;8.02;2.78;;;;;;;;;;4986325;28;20041;-82
2023/03/03 11:26:40;;;;;;;4.88;1.83;;;;;;;;;;4992775;28;20137;-81
2023/03/03 11:29:06;;;;;;;3.22;1.00;;;;;;;;;;4992277;28;20038;-80
2023/03/03 11:31:38;;;;;;;4.57;1.60;;;;;;;;;;4980736;28;20030;-78
2023/03/03 11:34:23;;;;;;;2.35;0.55;;;;;;;;;;4997804;28;20509;-76
2023/03/03 11:36:54;;;;;;;4.25;0.60;;;;;;;;;;4968148;28;20125;-75
2023/03/03 11:39:21;;;;;;;4.15;0.60;;;;;;;;;;4985849;28;20080;-75
2023/03/03 11:41:47;;;;;;;5.00;1.10;;;;;;;;;;4981477;28;20034;-75
2023/03/03 11:44:20;;;;;;;3.10;0.60;;;;;;;;;;4986280;28;20077;-75
2023/03/03 11:46:49;;;;;;;2.28;0.50;;;;;;;;;;4978034;28;20467;-75
2023/03/03 11:49:34;;;;;;;6.25;0.98;;;;;;;;;;4979980;28;20057;-77
2023/03/03 11:52:19;;;;;;;4.07;0.65;;;;;;;;;;4989570;28;20050;-76
2023/03/03 11:54:51;;;;;;;5.35;1.15;;;;;;;;;;4982840;28;20038;-78
2023/03/03 11:57:35;;;;;;;3.03;0.60;;;;;;;;;;4986859;28;20088;-77
2023/03/03 12:00:01;;;;;;;4.20;0.63;;;;;;;;;;4983125;28;20022;-78
2023/03/03 12:02:33;;;;;;;5.18;0.82;;;;;;;;;;4986733;28;20038;-75
2023/03/03 12:05:04;;;;;;;6.28;1.88;;;;;;;;;;4981992;28;20030;-80
2023/03/03 12:07:37;;;;;;;10.52;4.57;;;;;;;;;;4972599;28;20177;-74
2023/03/03 12:10:06;;;;;;;5.43;0.80;;;;;;;;;;4978525;28;20450;-76
2023/03/03 12:12:50;;;;;;;5.18;0.65;;;;;;;;;;4989113;28;20030;-78
2023/03/03 12:15:19;;;;;;;6.32;0.85;;;;;;;;;;4987250;28;20497;-78
2023/03/03 12:17:48;;;;;;;8.30;1.10;;;;;;;;;;4971963;28;20038;-75
2023/03/03 12:20:23;;;;;;;3.70;0.68;;;;;;;;;;4983611;28;20034;-76
2023/03/03 12:22:49;;;;;;;6.68;0.75;;;;;;;;;;4986298;28;20034;-76
2023/03/03 12:25:24;;;;;;;7.30;0.85;;;;;;;;;;4991201;28;20045;-76
2023/03/03 12:28:04;;;;;;;4.40;0.70;;;;;;;;;;4990112;28;20039;-76
2023/03/03 12:30:33;;;;;;;4.13;0.90;;;;;;;;;;4988710;28;20015;-77
2023/03/03 12:33:07;;;;;;;8.52;1.33;;;;;;;;;;4980743;28;20029;-77
2023/03/03 12:35:41;;;;;;;10.23;1.50;;;;;;;;;;4989107;28;20768;-77
2023/03/03 12:38:16;;;;;;;7.80;1.30;;;;;;;;;;4990892;28;20032;-77
2023/03/03 12:40:57;;;;;;;7.20;0.88;;;;;;;;;;4989281;28;20057;-76
2023/03/03 12:43:23;;;;;;;6.05;0.93;;;;;;;;;;4994605;28;20487;-76
2023/03/03 12:45:49;;;;;;;7.07;1.20;;;;;;;;;;4986293;28;20109;-77
2023/03/03 12:48:41;;;;;;;7.53;1.02;;;;;;;;;;4990304;28;20086;-77
2023/03/03 12:51:26;;;;;;;7.30;1.23;;;;;;;;;;4990303;28;20171;-77
2023/03/03 12:53:52;;;;;;;5.13;1.10;;;;;;;;;;4994915;28;20026;-77
2023/03/03 12:56:25;;;;;;;4.63;1.20;;;;;;;;;;4995404;28;20045;-78
2023/03/03 12:59:04;;;;;;;3.38;0.85;;;;;;;;;;4989796;28;20022;-78
2023/03/03 13:01:52;;;;;;;9.65;1.17;;;;;;;;;;4989710;28;20035;-77
2023/03/03 13:04:37;;;;;;;7.53;1.48;;;;;;;;;;4988396;28;20039;-77
2023/03/03 13:07:15;;;;;;;4.53;1.23;;;;;;;;;;4992495;28;20037;-76
2023/03/03 13:09:42;;;;;;;9.63;1.38;;;;;;;;;;4992998;28;20662;-76
2023/03/03 13:12:08;;;;;;;10.82;3.08;;;;;;;;;;4983266;28;20531;-76
2023/03/03 13:14:49;;;;;;;7.28;1.75;;;;;;;;;;4983649;28;20069;-76
2023/03/03 13:17:15;;;;;;;10.15;2.47;;;;;;;;;;4978057;28;20375;-76
2023/03/03 13:19:41;;;;;;;7.18;2.25;;;;;;;;;;4993389;28;20057;-76
2023/03/03 13:22:17;;;;;;;10.55;1.90;;;;;;;;;;4974353;28;20037;-76
2023/03/03 13:25:16;;;;;;;10.13;3.05;;;;;;;;;;4994970;28;20068;-75
2023/03/03 13:27:43;;;;;;;5.78;1.55;;;;;;;;;;4950717;28;20472;-76
2023/03/03 13:30:19;;;;;;;7.63;1.50;;;;;;;;;;4994406;28;20113;-76
2023/03/03 13:32:48;;;;;;;12.93;2.05;;;;;;;;;;4984894;28;20034;-76
2023/03/03 13:35:17;;;;;;;14.65;2.22;;;;;;;;;;4990401;28;20039;-75
2023/03/03 13:37:49;;;;;;;13.88;3.03;;;;;;;;;;4994201;28;20027;-76
2023/03/03 13:40:21;;;;;;;17.08;3.15;;;;;;;;;;4994186;28;20026;-76
2023/03/03 13:42:47;;;;;;;;;;;;;;;;;;4991319;28;20022;-76
2023/03/03 13:45:36;;;;;;;13.38;2.17;;;;;;;;;;4992778;28;19964;-76
2023/03/03 13:48:28;;;;;;;13.00;1.98;;;;;;;;;;4965860;28;20035;-76
2023/03/03 13:50:57;;;;;;;12.02;2.83;;;;;;;;;;4992973;28;20050;-76
2023/03/03 13:53:23;;;;;;;14.98;3.22;;;;;;;;;;4991546;28;20038;-76
2023/03/03 13:56:02;;;;;;;14.00;2.53;;;;;;;;;;4986693;28;20026;-76
2023/03/03 13:58:43;;;;;;;17.73;2.20;;;;;;;;;;4975055;28;20038;-76
2023/03/03 14:01:15;;;;;;;14.15;2.10;;;;;;;;;;4983810;28;20054;-77
2023/03/03 14:03:58;;;;;;;21.10;3.33;;;;;;;;;;4992090;28;20034;-77
2023/03/03 14:06:28;;;;;;;17.83;2.25;;;;;;;;;;4991045;28;20030;-76
2023/03/03 14:08:54;;;;;;;17.00;2.45;;;;;;;;;;4991839;28;20034;-77
2023/03/03 14:11:29;;;;;;;21.83;3.33;;;;;;;;;;4993795;28;20034;-77
2023/03/03 14:14:16;;;;;;;18.73;2.65;;;;;;;;;;4990820;28;20072;-77
2023/03/03 14:16:43;;;;;;;18.67;3.13;;;;;;;;;;4991818;28;20074;-77
2023/03/03 14:19:13;;;;;;;23.98;3.53;;;;;;;;;;4980812;28;20074;-75
2023/03/03 14:21:42;;;;;;;18.40;2.70;;;;;;;;;;4978142;28;20030;-78
2023/03/03 14:24:16;;;;;;;21.23;3.92;;;;;;;;;;4983138;28;20064;-78
2023/03/03 14:26:49;;;;;;;19.48;2.60;;;;;;;;;;4981679;28;20034;-74
2023/03/03 14:29:28;;;;;;;19.38;3.88;;;;;;;;;;4970407;28;20145;-74
2023/03/03 14:31:54;;;;;;;27.00;3.53;;;;;;;;;;4983212;28;20478;-75
2023/03/03 14:34:23;;;;;;;17.90;2.58;;;;;;;;;;4988196;28;20046;-75
2023/03/03 14:36:50;;;;;;;20.55;4.60;;;;;;;;;;4982141;28;20104;-75
2023/03/03 14:39:30;;;;;;;23.00;3.88;;;;;;;;;;4981570;28;20026;-75
2023/03/03 14:41:58;;;;;;;24.42;3.28;;;;;;;;;;4975933;28;20157;-78
2023/03/03 14:44:26;;;;;;;17.67;3.38;;;;;;;;;;4990624;28;20696;-74
2023/03/03 14:47:01;;;;;;;27.67;4.55;;;;;;;;;;4986627;28;20062;-74
2023/03/03 14:49:31;;;;;;;20.02;3.30;;;;;;;;;;4976012;28;20124;-74